Date/Time EDT BROAD KEY-Water Temp BROAD KEY-Linear Conductivity BROAD KEY-Non Linear Conductivity BROAD KEY-Water Level BROAD KEY-Salinity BROAD KEY-TDS BROAD KEY-Air Temp BROAD KEY-Water Temp in F BROAD KEY-Air Temp in F
19-Jun-2017 10:40 27.53 2,584.67 2,584.29 3.72 1.31 1,234.86 93.51 81.55 200.32
19-Jun-2017 10:35 27.58 2,588.18 2,587.76 3.68 1.31 1,237.33 93.71 81.64 200.68
19-Jun-2017 10:10 27.63 2,591.27 2,590.79 3.47 1.32 1,239.61 79.75 81.73 175.55
19-Jun-2017 04:45 28.00 2,612.35 2,611.49 4.37 1.33 1,253.21 37.74 82.40 99.93
17-Jun-2017 08:00 28.93 2,612.07 2,610.11 3.59 1.33 1,251.88 72.78 84.07 163.00
15-Jun-2017 23:30 30.12 2,680.92 2,677.13 3.87 1.38 1,300.00 97.89 86.22 208.20
15-Jun-2017 21:05 30.45 2,667.00 2,662.68 3.47 1.37 1,294.69 96.07 86.81 204.93
15-Jun-2017 08:10 28.92 2,642.55 2,640.57 3.70 1.35 1,274.87 57.23 84.06 135.01
15-Jun-2017 07:10 29.02 2,653.84 2,651.73 3.78 1.36 1,282.16 61.80 84.24 143.24
15-Jun-2017 05:30 29.18 2,658.22 2,655.89 4.00 1.36 1,285.64 57.27 84.52 135.09
15-Jun-2017 04:55 29.26 2,661.83 2,659.38 4.19 1.36 1,286.69 58.27 84.67 136.89
15-Jun-2017 03:45 29.36 2,670.54 2,667.93 4.54 1.37 1,293.20 62.21 84.85 143.98
15-Jun-2017 03:25 29.37 2,672.01 2,669.39 4.53 1.37 1,293.08 56.89 84.87 134.40
14-Jun-2017 08:10 28.85 2,681.24 2,679.33 3.82 1.38 1,299.45 27.63 83.93 81.73
14-Jun-2017 08:05 28.86 2,684.53 2,682.60 3.91 1.38 1,300.42 27.16 83.95 80.89
11-Jun-2017 10:05 28.58 2,518.03 2,516.56 4.07 1.27 1,193.48 29.63 83.44 85.33
11-Jun-2017 10:00 28.58 2,517.05 2,515.59 4.04 1.27 1,192.76 29.73 83.44 85.51
10-Jun-2017 00:55 28.24 2,499.89 2,498.83 4.13 1.26 1,183.68 25.04 82.83 77.07
10-Jun-2017 00:50 28.25 2,504.03 2,502.94 4.13 1.26 1,185.56 25.17 82.85 77.31
10-Jun-2017 00:45 28.30 2,504.55 2,503.42 4.16 1.26 1,186.30 25.14 82.94 77.25
10-Jun-2017 00:35 28.28 2,503.05 2,501.94 4.21 1.26 1,185.49 24.84 82.90 76.71
10-Jun-2017 00:30 28.24 2,505.04 2,503.96 4.23 1.26 1,186.33 24.72 82.83 76.50
10-Jun-2017 00:25 28.24 2,507.01 2,505.94 4.23 1.26 1,188.85 24.74 82.83 76.53
10-Jun-2017 00:20 28.31 2,510.18 2,509.03 4.25 1.27 1,189.58 24.72 82.96 76.50
09-Jun-2017 23:45 28.27 2,507.08 2,505.97 4.34 1.26 1,185.42 24.66 82.89 76.39
09-Jun-2017 23:40 28.27 2,504.35 2,503.25 4.35 1.26 1,184.38 24.68 82.89 76.42
09-Jun-2017 23:35 28.27 2,500.75 2,499.66 4.37 1.26 1,184.49 24.67 82.89 76.41
09-Jun-2017 23:00 28.28 2,501.29 2,500.18 4.37 1.26 1,182.61 24.58 82.90 76.24
09-Jun-2017 22:55 28.30 2,502.20 2,501.07 4.36 1.26 1,183.62 24.44 82.94 75.99
09-Jun-2017 22:50 28.31 2,504.21 2,503.06 4.36 1.26 1,183.58 24.49 82.96 76.08
09-Jun-2017 22:35 28.37 2,505.57 2,504.36 4.37 1.26 1,186.01 24.42 83.07 75.96
09-Jun-2017 22:00 28.47 2,506.44 2,505.11 4.38 1.26 1,186.22 24.14 83.25 75.45
09-Jun-2017 19:25 28.72 2,547.72 2,546.07 4.24 1.29 1,207.50 22.11 83.70 71.80
09-Jun-2017 19:20 28.74 2,546.15 2,544.48 4.30 1.29 1,206.70 22.03 83.73 71.65
09-Jun-2017 18:55 28.74 2,548.91 2,547.24 3.96 1.29 1,207.83 24.17 83.73 75.51
09-Jun-2017 18:50 28.74 2,550.62 2,548.94 3.97 1.29 1,208.99 24.05 83.73 75.29
06-Jun-2017 18:00 30.54 2,597.17 2,592.81 3.96 1.32 1,236.72 31.26 86.97 88.27
06-Jun-2017 06:00 28.43 2,589.43 2,588.11 4.19 1.31 1,226.20 27.43 83.17 81.37
06-Jun-2017 05:50 28.44 2,592.15 2,590.81 4.18 1.31 1,227.01 27.39 83.19 81.30
06-Jun-2017 05:25 28.46 2,602.46 2,601.09 4.16 1.31 1,232.82 27.41 83.23 81.34
06-Jun-2017 05:15 28.46 2,605.96 2,604.59 4.07 1.32 1,235.10 27.62 83.23 81.72
03-Jun-2017 10:45 28.89 2,609.15 2,607.24 3.36 1.32 1,238.99 26.56 84.00 79.81
03-Jun-2017 09:15 28.89 2,626.69 2,624.77 3.69 1.33 1,246.98 26.89 84.00 80.40
03-Jun-2017 09:10 28.89 2,625.48 2,623.56 3.77 1.33 1,247.92 26.55 84.00 79.79
03-Jun-2017 08:50 29.00 2,628.14 2,626.08 3.99 1.33 1,247.35 26.02 84.20 78.84
01-Jun-2017 07:40 29.88 2,707.03 2,703.60 3.57 1.38 1,295.11 26.01 85.78 78.82
01-Jun-2017 07:35 29.89 2,707.38 2,703.92 3.62 1.38 1,295.92 25.66 85.80 78.19
01-Jun-2017 07:15 29.96 2,707.69 2,704.12 3.84 1.38 1,296.25 25.16 85.93 77.29
01-Jun-2017 07:10 30.00 2,711.10 2,707.46 3.86 1.38 1,298.60 25.76 86.00 78.37
01-Jun-2017 07:00 30.05 2,712.61 2,708.90 3.82 1.38 1,298.39 26.80 86.09 80.24